Time;durP1;ratioP1;P1;durP2;ratioP2;P2;SDS_P1;SDS_P2;PMS_P1;PMS_P2;Temp;Humidity;BMP_temperature;BMP_pressure;BME280_temperature;BME280_humidity;BME280_pressure;Samples;Min_cycle;Max_cycle;Signal;HPM_P1;HPM_P2
2023/12/07 00:02:35;;;;;;;112.60;42.30;;;;;;;-1.80;81.90;101194.44;106136;1289;59354;-59
2023/12/07 00:05:21;;;;;;;114.80;45.10;;;;;;;-1.80;81.82;101194.61;106194;1291;60733;-59
2023/12/07 00:08:10;;;;;;;115.50;48.80;;;;;;;-1.80;81.87;101195.45;106160;1288;74907;-59
2023/12/07 00:10:56;;;;;;;117.00;47.60;;;;;;;-1.80;81.90;101194.77;106154;1289;68496;-59
2023/12/07 00:13:42;;;;;;;119.30;47.40;;;;;;;-1.80;81.85;101198.17;106093;1290;71406;-59
2023/12/07 00:16:29;;;;;;;;;;;;;;;-1.79;81.94;101200.05;106090;1289;59025;-59
2023/12/07 00:19:15;;;;;;;107.20;41.90;;;;;;;-1.77;81.96;101202.67;106129;1288;59059;-59
2023/12/07 00:22:01;;;;;;;114.60;46.10;;;;;;;-1.77;81.86;101200.32;106081;1289;73518;-58
2023/12/07 00:24:47;;;;;;;112.50;45.60;;;;;;;-1.77;81.93;101202.36;106078;1290;67544;-59
2023/12/07 00:27:33;;;;;;;;;;;;;;;-1.77;81.91;101202.36;106065;1289;71413;-58
2023/12/07 00:30:20;;;;;;;100.20;42.40;;;;;;;-1.76;81.94;101201.20;106092;1289;58738;-59
2023/12/07 00:33:06;;;;;;;113.40;44.30;;;;;;;-1.75;81.96;101200.23;106014;1289;60036;-59
2023/12/07 00:35:52;;;;;;;116.40;46.20;;;;;;;-1.74;81.94;101200.63;106120;1291;73381;-59
2023/12/07 00:38:38;;;;;;;110.60;46.00;;;;;;;-1.75;81.88;101199.55;106063;1288;67756;-58
2023/12/07 00:41:24;;;;;;;111.80;46.80;;;;;;;-1.76;81.93;101199.02;106105;1291;73121;-58
2023/12/07 00:44:10;;;;;;;111.00;45.60;;;;;;;-1.77;81.91;101202.01;106058;1288;59336;-58
2023/12/07 00:46:56;;;;;;;108.90;42.60;;;;;;;-1.78;82.01;101202.98;106153;1288;59054;-59
2023/12/07 00:49:42;;;;;;;111.20;45.40;;;;;;;-1.79;81.95;101203.08;106140;1292;73408;-59
2023/12/07 00:52:28;;;;;;;114.10;48.70;;;;;;;-1.81;81.96;101209.92;105974;1290;68566;-57
2023/12/07 00:55:14;;;;;;;;;;;;;;;-1.84;81.96;101208.79;106034;1290;73022;-58
2023/12/07 00:58:01;;;;;;;112.60;43.90;;;;;;;-1.86;82.03;101213.80;106041;1291;58960;-59
2023/12/07 01:00:47;;;;;;;111.10;45.80;;;;;;;-1.84;82.12;101212.00;106043;1290;59935;-59
2023/12/07 01:03:33;;;;;;;110.60;45.20;;;;;;;-1.84;82.07;101211.48;106092;1290;74389;-58
2023/12/07 01:06:19;;;;;;;112.70;46.60;;;;;;;-1.85;82.10;101215.36;106046;1291;66588;-59
2023/12/07 01:09:05;;;;;;;118.00;46.00;;;;;;;-1.85;82.12;101215.52;106042;1290;71413;-59
2023/12/07 01:11:51;;;;;;;;;;;;;;;-1.85;82.05;101220.39;105728;1289;169792;-58
2023/12/07 01:14:38;;;;;;;106.40;42.70;;;;;;;-1.86;82.10;101223.42;106151;1288;59072;-59
2023/12/07 01:17:24;;;;;;;111.90;45.10;;;;;;;-1.86;82.04;101223.73;106191;1289;74097;-59
2023/12/07 01:20:12;;;;;;;119.00;46.00;;;;;;;-1.85;82.12;101230.23;106143;1291;68585;-59
2023/12/07 01:22:58;;;;;;;118.20;46.40;;;;;;;-1.84;82.14;101229.92;106110;1289;72589;-59
2023/12/07 01:25:44;;;;;;;110.80;45.60;;;;;;;-1.83;82.11;101228.09;106186;1288;58694;-59
2023/12/07 01:28:31;;;;;;;115.60;45.70;;;;;;;-1.82;82.04;101229.31;106128;1290;59418;-58
2023/12/07 01:31:17;;;;;;;111.80;47.20;;;;;;;-1.83;82.08;101227.11;106108;1288;72685;-59
2023/12/07 01:34:03;;;;;;;116.40;46.30;;;;;;;-1.85;82.08;101227.35;106217;1288;67519;-59
2023/12/07 01:36:49;;;;;;;108.60;45.60;;;;;;;-1.84;82.21;101227.56;105980;1289;72559;-59
2023/12/07 01:39:35;;;;;;;120.40;46.60;;;;;;;-1.85;82.12;101226.14;106178;1288;59540;-58
2023/12/07 01:42:21;;;;;;;116.30;46.80;;;;;;;-1.85;82.21;101224.80;106107;1288;59352;-59
2023/12/07 01:45:07;;;;;;;;;;;;;;;-1.84;82.08;101228.07;106137;1289;73870;-58
2023/12/07 01:47:54;;;;;;;107.90;43.60;;;;;;;-1.84;82.16;101226.36;106104;1289;67922;-58
2023/12/07 01:51:00;;;;;;;117.40;47.30;;;;;;;-1.83;82.18;101226.05;47197;1289;10002427;-59
2023/12/07 01:53:47;;;;;;;;;;;;;;;-1.82;82.12;101221.55;106116;1289;67929;-59
2023/12/07 01:56:34;;;;;;;110.60;43.00;;;;;;;-1.81;82.20;101226.99;106149;1289;72587;-59
2023/12/07 01:59:21;;;;;;;106.80;43.20;;;;;;;-1.81;82.22;101225.84;106142;1289;59932;-59
2023/12/07 02:02:07;;;;;;;104.20;43.80;;;;;;;-1.81;82.13;101232.40;106166;1290;59072;-58
2023/12/07 02:04:54;;;;;;;108.90;45.30;;;;;;;-1.81;82.17;101230.57;106074;1289;74341;-59
2023/12/07 02:07:43;;;;;;;112.00;46.40;;;;;;;-1.81;82.18;101228.87;106138;1288;68579;-58
2023/12/07 02:10:30;;;;;;;105.00;44.40;;;;;;;-1.80;82.16;101224.50;106080;1289;72247;-59
2023/12/07 02:13:16;;;;;;;112.80;46.60;;;;;;;-1.79;82.25;101225.56;106086;1289;59034;-59
2023/12/07 02:16:11;;;;;;;111.30;46.50;;;;;;;-1.78;82.19;101228.34;106118;1289;59097;-57
2023/12/07 02:19:31;;;;;;;107.40;41.40;;;;;;;-1.79;82.18;101224.75;106124;1289;74352;-59
2023/12/07 02:22:25;;;;;;;106.10;44.50;;;;;;;-1.78;82.21;101224.45;105833;1290;67857;-57
2023/12/07 02:25:14;;;;;;;108.60;44.50;;;;;;;-1.75;82.21;101227.94;104802;1289;72547;-58
2023/12/07 02:28:00;;;;;;;109.90;45.00;;;;;;;-1.74;82.24;101233.88;104806;1289;61325;-58
2023/12/07 02:30:47;;;;;;;111.90;46.60;;;;;;;-1.75;82.21;101237.57;104835;1289;61250;-58
2023/12/07 02:33:33;;;;;;;106.50;45.20;;;;;;;-1.77;82.25;101234.65;104739;1290;73180;-57
2023/12/07 02:36:24;;;;;;;97.90;42.70;;;;;;;-1.77;82.27;101233.92;104818;1289;67182;-58
2023/12/07 02:39:12;;;;;;;98.00;42.30;;;;;;;-1.80;82.24;101234.84;104780;1290;70333;-58
2023/12/07 02:41:59;;;;;;;97.80;42.00;;;;;;;-1.81;82.29;101231.59;106121;1289;59325;-58
2023/12/07 02:44:45;;;;;;;104.40;43.60;;;;;;;-1.82;82.25;101229.68;106137;1289;60532;-59
2023/12/07 02:47:31;;;;;;;109.30;43.70;;;;;;;-1.82;82.31;101230.15;106137;1290;74401;-59
2023/12/07 02:50:17;;;;;;;;;;;;;;;-1.81;82.36;101227.84;106132;1289;68410;-58
2023/12/07 02:53:03;;;;;;;102.90;39.10;;;;;;;-1.80;82.33;101228.91;106134;1289;72497;-58
2023/12/07 02:55:49;;;;;;;101.20;41.10;;;;;;;-1.79;82.30;101235.02;106077;1290;59332;-58
2023/12/07 02:58:35;;;;;;;106.50;43.20;;;;;;;-1.80;82.21;101237.39;106143;1290;59824;-59
2023/12/07 03:01:21;;;;;;;102.50;43.70;;;;;;;-1.78;82.28;101241.33;106088;1289;73352;-59
2023/12/07 03:04:07;;;;;;;106.80;43.10;;;;;;;-1.77;82.31;101240.18;106108;1289;67410;-58
2023/12/07 03:06:53;;;;;;;105.10;43.60;;;;;;;-1.75;82.38;101240.11;106092;1291;70577;-59
2023/12/07 03:09:39;;;;;;;101.10;42.50;;;;;;;-1.73;82.37;101238.20;106089;1289;59230;-57
2023/12/07 03:12:25;;;;;;;97.00;41.10;;;;;;;-1.70;82.33;101238.97;106147;1289;59101;-58
2023/12/07 03:15:13;;;;;;;;;;;;;;;-1.70;82.32;101242.05;106107;1289;74143;-58
2023/12/07 03:17:59;;;;;;;93.60;39.00;;;;;;;-1.69;82.37;101243.75;106167;1289;67226;-59
2023/12/07 03:20:45;;;;;;;115.90;44.50;;;;;;;-1.69;82.33;101252.73;106143;1289;71415;-59
2023/12/07 03:23:31;;;;;;;109.00;41.70;;;;;;;-1.68;82.32;101256.51;106094;1289;59141;-59
2023/12/07 03:26:17;;;;;;;102.30;41.50;;;;;;;-1.65;82.32;101264.05;106174;1289;60114;-59
2023/12/07 03:29:03;;;;;;;95.70;39.50;;;;;;;-1.65;82.39;101265.23;106077;1291;73183;-59
2023/12/07 03:31:49;;;;;;;99.30;42.50;;;;;;;-1.64;82.41;101271.02;106127;1290;67442;-58
2023/12/07 03:34:35;;;;;;;100.80;42.90;;;;;;;-1.64;82.42;101277.62;106121;1290;72380;-59
2023/12/07 03:37:21;;;;;;;115.80;45.40;;;;;;;-1.65;82.35;101277.72;106105;1289;58740;-59
2023/12/07 03:40:08;;;;;;;109.60;43.80;;;;;;;-1.66;82.36;101283.45;106134;1289;59002;-58
2023/12/07 03:42:54;;;;;;;97.10;42.60;;;;;;;-1.65;82.43;101280.27;106073;1288;74229;-59
2023/12/07 03:45:40;;;;;;;95.90;41.70;;;;;;;-1.65;82.42;101283.50;106072;1289;68937;-59
2023/12/07 03:48:26;;;;;;;99.90;41.00;;;;;;;-1.64;82.33;101287.38;106123;1289;72106;-59
2023/12/07 03:51:16;;;;;;;110.30;45.00;;;;;;;-1.66;82.41;101290.53;106095;1288;58994;-58
2023/12/07 03:54:04;;;;;;;110.90;43.50;;;;;;;-1.67;82.45;101292.90;105683;1288;61709;-58
2023/12/07 03:56:50;;;;;;;115.00;44.50;;;;;;;-1.64;82.48;101295.35;106183;1288;73404;-59
2023/12/07 03:59:36;;;;;;;100.30;41.60;;;;;;;-1.64;82.45;101295.89;106176;1288;68963;-58
2023/12/07 04:02:22;;;;;;;101.00;44.40;;;;;;;-1.63;82.45;101294.05;106192;1288;72290;-59
2023/12/07 04:05:08;;;;;;;104.90;43.10;;;;;;;-1.62;82.45;101297.45;106192;1288;59266;-58
2023/12/07 04:07:54;;;;;;;101.90;43.10;;;;;;;-1.62;82.46;101292.23;106198;1288;59941;-58
2023/12/07 04:10:40;;;;;;;104.40;45.00;;;;;;;-1.62;82.52;101296.11;106195;1288;74895;-59
2023/12/07 04:13:27;;;;;;;104.10;42.80;;;;;;;-1.61;82.56;101296.01;106152;1288;67216;-59
2023/12/07 04:16:13;;;;;;;;;;;;;;;-1.60;82.51;101291.14;106201;1288;71206;-59
2023/12/07 04:18:59;;;;;;;103.40;42.80;;;;;;;-1.58;82.56;101289.35;106147;1288;59132;-58
2023/12/07 04:21:45;;;;;;;;;;;;;;;-1.59;82.51;101291.20;106176;1290;59205;-58
2023/12/07 04:24:31;;;;;;;102.00;40.50;;;;;;;-1.57;82.55;101290.41;106015;1288;74914;-56
2023/12/07 04:27:17;;;;;;;99.90;40.10;;;;;;;-1.56;82.58;101291.14;104910;1289;67480;-57
2023/12/07 04:30:04;;;;;;;106.10;43.70;;;;;;;-1.57;82.53;101292.13;104861;1290;73804;-58
2023/12/07 04:32:50;;;;;;;113.00;44.70;;;;;;;-1.58;82.56;101296.31;106157;1288;60398;-59
2023/12/07 04:35:36;;;;;;;108.90;44.50;;;;;;;-1.58;82.55;101299.02;106201;1288;59983;-58
2023/12/07 04:38:22;;;;;;;98.90;42.10;;;;;;;-1.59;82.53;101303.71;105821;1288;72846;-58
2023/12/07 04:41:09;;;;;;;110.50;44.30;;;;;;;-1.59;82.56;101308.25;104904;1292;67915;-58
2023/12/07 04:43:55;;;;;;;100.90;42.60;;;;;;;-1.60;82.60;101310.08;104872;1288;74014;-58
2023/12/07 04:46:42;;;;;;;113.10;44.30;;;;;;;-1.62;82.51;101313.55;104925;1288;61269;-58
2023/12/07 04:49:28;;;;;;;104.40;42.50;;;;;;;-1.64;82.51;101313.79;105429;1288;61366;-58
2023/12/07 04:52:15;;;;;;;108.10;43.70;;;;;;;-1.65;82.58;101315.95;104901;1291;73247;-57
2023/12/07 04:55:01;;;;;;;112.20;43.60;;;;;;;-1.66;82.59;101315.20;104853;1290;67367;-58
2023/12/07 04:57:47;;;;;;;111.60;43.10;;;;;;;-1.67;82.61;101317.21;104869;1289;71281;-57
2023/12/07 05:00:34;;;;;;;103.90;42.10;;;;;;;-1.68;82.53;101314.63;104853;1289;61327;-57
2023/12/07 05:03:20;;;;;;;103.70;42.40;;;;;;;-1.69;82.58;101314.57;104842;1289;61659;-57
2023/12/07 05:06:07;;;;;;;107.70;43.80;;;;;;;-1.69;82.63;101318.30;104823;1289;73298;-56
2023/12/07 05:08:53;;;;;;;108.00;43.60;;;;;;;-1.70;82.68;101319.96;104877;1291;67221;-58
2023/12/07 05:11:40;;;;;;;111.20;44.50;;;;;;;-1.70;82.83;101318.62;104847;1292;72103;-58
2023/12/07 05:14:26;;;;;;;107.00;43.50;;;;;;;-1.69;82.76;101324.54;104836;1290;59673;-58
2023/12/07 05:17:13;;;;;;;109.40;42.30;;;;;;;-1.72;82.93;101328.45;104772;1290;61064;-58
2023/12/07 05:19:59;;;;;;;105.90;42.60;;;;;;;-1.77;82.64;101330.77;104814;1290;73327;-56
2023/12/07 05:22:46;;;;;;;111.50;43.40;;;;;;;-1.81;82.63;101334.98;104910;1292;67248;-58
2023/12/07 05:25:33;;;;;;;113.20;43.60;;;;;;;-1.84;82.73;101339.77;104887;1290;71245;-55
2023/12/07 05:28:19;;;;;;;107.50;42.60;;;;;;;-1.88;82.67;101345.98;97832;1289;10001550;-59
2023/12/07 05:31:06;;;;;;;117.70;42.10;;;;;;;-1.90;82.71;101348.25;105398;1289;67453;-57
2023/12/07 05:33:53;;;;;;;113.10;44.20;;;;;;;-1.89;82.80;101347.98;104808;1293;71156;-57
2023/12/07 05:36:39;;;;;;;118.00;44.30;;;;;;;-1.85;82.74;101349.49;104770;1293;60697;-57
2023/12/07 05:39:26;;;;;;;114.40;43.60;;;;;;;-1.81;82.76;101348.49;104796;1290;59737;-58
2023/12/07 05:42:12;;;;;;;117.80;44.70;;;;;;;-1.79;82.85;101346.77;104787;1291;75991;-59
2023/12/07 05:44:59;;;;;;;108.20;45.00;;;;;;;-1.77;82.74;101349.20;104868;1289;67250;-59
2023/12/07 05:47:45;;;;;;;119.20;44.10;;;;;;;-1.75;82.77;101347.08;104782;1290;71367;-58
2023/12/07 05:50:32;;;;;;;110.50;42.90;;;;;;;-1.73;82.82;101350.38;104809;1289;61126;-59
2023/12/07 05:53:18;;;;;;;99.20;41.10;;;;;;;-1.71;82.85;101352.34;104857;1294;61132;-58
2023/12/07 05:56:05;;;;;;;116.70;45.80;;;;;;;-1.70;82.84;101351.73;104837;1291;77319;-58
2023/12/07 05:58:51;;;;;;;117.70;45.10;;;;;;;-1.72;82.83;101350.95;106115;1291;67405;-58
2023/12/07 06:01:37;;;;;;;115.90;45.80;;;;;;;-1.73;82.88;101352.43;106093;1288;71380;-56
2023/12/07 06:04:23;;;;;;;;;;;;;;;-1.73;82.84;101354.13;104936;1291;61624;-59
2023/12/07 06:07:09;;;;;;;122.40;44.20;;;;;;;-1.71;82.84;101356.23;104817;1291;61833;-59
2023/12/07 06:09:56;;;;;;;123.60;46.80;;;;;;;-1.70;82.86;101359.16;104854;1290;74817;-59
2023/12/07 06:12:42;;;;;;;123.30;47.10;;;;;;;-1.69;82.97;101364.60;104771;1289;68206;-59
2023/12/07 06:15:28;;;;;;;121.60;46.30;;;;;;;-1.68;82.85;101360.08;104814;1288;72592;-60
2023/12/07 06:18:15;;;;;;;128.90;48.60;;;;;;;-1.68;82.86;101363.98;104777;1289;61173;-58
2023/12/07 06:21:03;;;;;;;;;;;;;;;-1.67;82.89;101363.68;104881;1289;61177;-57
2023/12/07 06:23:49;;;;;;;112.70;42.00;;;;;;;-1.66;82.76;101368.11;104860;1290;75505;-59
2023/12/07 06:26:36;;;;;;;121.60;45.70;;;;;;;-1.66;82.82;101370.66;104788;1290;67358;-58
2023/12/07 06:29:22;;;;;;;115.30;45.30;;;;;;;-1.65;82.85;101373.21;104810;1292;71158;-58
2023/12/07 06:32:09;;;;;;;127.30;49.10;;;;;;;-1.66;82.88;101371.35;104789;1289;61181;-57
2023/12/07 06:34:55;;;;;;;138.10;49.30;;;;;;;-1.64;82.88;101371.24;104921;1289;61632;-59
2023/12/07 06:37:41;;;;;;;125.70;49.00;;;;;;;-1.64;82.86;101374.79;104872;1290;73187;-59
2023/12/07 06:40:28;;;;;;;141.00;49.90;;;;;;;-1.65;82.84;101377.80;104879;1291;67426;-60
2023/12/07 06:43:14;;;;;;;131.40;48.50;;;;;;;-1.66;82.86;101382.33;104839;1294;71248;-60
2023/12/07 06:46:00;;;;;;;134.50;48.70;;;;;;;-1.65;82.91;101387.95;104860;1290;61380;-58
2023/12/07 06:48:47;;;;;;;140.50;51.20;;;;;;;-1.64;82.94;101388.47;104892;1288;61314;-59
2023/12/07 06:51:33;;;;;;;130.20;49.30;;;;;;;-1.63;82.98;101391.90;105027;1289;73327;-59
2023/12/07 06:54:19;;;;;;;134.10;48.00;;;;;;;-1.63;82.94;101397.65;105017;1288;68147;-58
2023/12/07 06:57:08;;;;;;;137.70;51.40;;;;;;;-1.63;83.00;101398.66;104868;1291;70137;-59
2023/12/07 06:59:55;;;;;;;130.50;48.90;;;;;;;-1.64;83.04;101399.34;104914;1289;61171;-58
2023/12/07 07:02:41;;;;;;;132.10;48.60;;;;;;;-1.62;83.05;101403.77;104983;1288;61184;-59
2023/12/07 07:05:28;;;;;;;122.30;48.20;;;;;;;-1.61;83.00;101402.98;105029;1288;73334;-58
2023/12/07 07:08:14;;;;;;;121.80;44.90;;;;;;;-1.62;82.88;101411.08;104993;1289;67473;-58
2023/12/07 07:11:00;;;;;;;132.20;46.90;;;;;;;-1.62;82.95;101414.96;105007;1289;71381;-59
2023/12/07 07:13:47;;;;;;;130.70;46.40;;;;;;;-1.62;83.01;101418.86;105026;1288;61603;-58
2023/12/07 07:16:33;;;;;;;131.10;46.70;;;;;;;-1.62;82.91;101413.96;104963;1289;61915;-58
2023/12/07 07:19:19;;;;;;;125.80;46.30;;;;;;;-1.61;83.08;101411.14;104966;1288;75241;-59
2023/12/07 07:22:06;;;;;;;128.40;46.00;;;;;;;-1.58;83.10;101407.71;104935;1290;67379;-58
2023/12/07 07:24:52;;;;;;;124.80;45.80;;;;;;;-1.58;83.00;101408.06;104996;1288;71426;-59
2023/12/07 07:27:39;;;;;;;123.90;45.00;;;;;;;-1.58;83.03;101410.42;105011;1289;61380;-59
2023/12/07 07:30:26;;;;;;;126.40;47.10;;;;;;;-1.57;82.97;101408.25;105020;1288;61213;-57
2023/12/07 07:33:12;;;;;;;123.30;46.80;;;;;;;-1.56;83.07;101408.45;105046;1288;73465;-59
2023/12/07 07:35:59;;;;;;;130.70;49.40;;;;;;;-1.53;83.03;101409.23;104975;1288;70066;-59
2023/12/07 07:38:45;;;;;;;135.40;49.10;;;;;;;-1.52;83.05;101411.34;105027;1288;71264;-57
2023/12/07 07:41:31;;;;;;;127.20;49.40;;;;;;;-1.51;83.06;101408.67;104967;1287;61339;-58
2023/12/07 07:44:18;;;;;;;126.30;50.10;;;;;;;-1.49;83.03;101410.61;105027;1288;60741;-58
2023/12/07 07:47:04;;;;;;;121.20;45.50;;;;;;;-1.48;83.03;101414.23;105028;1291;73740;-58
2023/12/07 07:49:50;;;;;;;131.30;48.20;;;;;;;-1.46;83.15;101417.88;104994;1288;67537;-59
2023/12/07 07:52:37;;;;;;;121.20;46.80;;;;;;;-1.44;83.14;101418.30;105025;1288;75299;-57
2023/12/07 07:55:23;;;;;;;113.20;44.10;;;;;;;-1.45;83.11;101421.30;105043;1290;61453;-58
2023/12/07 07:58:10;;;;;;;132.00;50.30;;;;;;;-1.43;83.14;101421.90;104940;1290;59263;-58
2023/12/07 08:00:56;;;;;;;115.60;44.20;;;;;;;-1.40;83.09;101420.00;104996;1288;73295;-60
2023/12/07 08:03:42;;;;;;;125.90;47.90;;;;;;;-1.37;83.12;101415.41;105050;1292;68137;-58
2023/12/07 08:06:28;;;;;;;;;;;;;;;-1.33;83.22;101414.73;104996;1288;71128;-59
2023/12/07 08:09:15;;;;;;;115.30;41.90;;;;;;;-1.31;83.18;101417.20;105042;1288;60234;-57
2023/12/07 08:12:01;;;;;;;118.00;44.80;;;;;;;-1.28;83.18;101420.69;105008;1288;61176;-58
2023/12/07 08:14:48;;;;;;;123.40;46.70;;;;;;;-1.25;83.17;101423.03;104982;1288;72486;-57
2023/12/07 08:17:35;;;;;;;120.00;46.00;;;;;;;-1.22;83.12;101426.88;105031;1288;67269;-56
2023/12/07 08:20:21;;;;;;;117.70;45.90;;;;;;;-1.20;83.12;101425.45;104967;1288;71298;-58
2023/12/07 08:23:07;;;;;;;120.50;46.20;;;;;;;-1.17;83.23;101430.00;104981;1289;60312;-58
2023/12/07 08:25:56;;;;;;;107.40;43.30;;;;;;;-1.16;83.19;101431.92;104943;1292;61666;-59
2023/12/07 08:28:43;;;;;;;127.40;46.10;;;;;;;-1.16;83.23;101436.80;104944;1288;73175;-59
2023/12/07 08:31:30;;;;;;;120.40;46.90;;;;;;;-1.16;83.22;101438.84;104977;1288;67201;-59
2023/12/07 08:34:16;;;;;;;119.10;45.00;;;;;;;-1.14;83.22;101439.41;104962;1289;71155;-58
2023/12/07 08:37:03;;;;;;;111.10;43.20;;;;;;;-1.12;83.35;101441.54;105014;1288;61286;-59
2023/12/07 08:39:49;;;;;;;120.00;47.20;;;;;;;-1.08;83.31;101440.38;104990;1292;60692;-60
2023/12/07 08:42:35;;;;;;;110.80;44.60;;;;;;;-1.07;83.31;101444.82;104838;1289;76502;-59
2023/12/07 08:45:22;;;;;;;;;;;;;;;-1.05;83.22;101447.27;105014;1291;67298;-59
2023/12/07 08:48:08;;;;;;;118.60;45.30;;;;;;;-1.03;83.23;101446.30;104943;1290;73446;-59
2023/12/07 08:50:54;;;;;;;;;;;;;;;-1.02;83.28;101446.20;105016;1288;60027;-59
2023/12/07 08:53:41;;;;;;;105.40;39.20;;;;;;;-0.99;83.39;101444.80;105003;1288;61139;-59
2023/12/07 08:56:27;;;;;;;115.70;44.10;;;;;;;-0.97;83.32;101445.90;104969;1292;77652;-60
2023/12/07 08:59:13;;;;;;;;;;;;;;;-0.97;83.23;101444.90;104891;1291;67295;-59
2023/12/07 09:02:00;;;;;;;111.40;42.30;;;;;;;-0.96;83.23;101449.84;104942;1288;71205;-58
2023/12/07 09:04:46;;;;;;;117.60;44.40;;;;;;;-0.94;83.26;101450.28;105007;1288;61396;-60
2023/12/07 09:07:32;;;;;;;;;;;;;;;-0.90;83.25;101452.13;105067;1288;61232;-59
2023/12/07 09:10:19;;;;;;;120.80;43.00;;;;;;;-0.89;83.29;101455.04;105037;1288;75625;-59
2023/12/07 09:13:05;;;;;;;113.60;44.40;;;;;;;-0.90;83.28;101458.05;106195;1288;66991;-61
2023/12/07 09:15:51;;;;;;;116.40;46.20;;;;;;;-0.88;83.22;101458.65;106231;1288;71227;-60
2023/12/07 09:18:37;;;;;;;116.50;45.40;;;;;;;-0.87;83.30;101464.27;106317;1287;59261;-61
2023/12/07 09:21:23;;;;;;;113.30;45.60;;;;;;;-0.85;83.28;101464.23;106295;1288;58976;-61
2023/12/07 09:24:09;;;;;;;115.10;45.10;;;;;;;-0.81;83.27;101463.19;106210;1287;74597;-61
2023/12/07 09:26:55;;;;;;;115.00;46.90;;;;;;;-0.79;83.28;101459.74;106301;1288;68412;-60
2023/12/07 09:29:41;;;;;;;111.60;45.20;;;;;;;-0.79;83.19;101456.85;106268;1288;72512;-61
2023/12/07 09:32:28;;;;;;;111.60;44.20;;;;;;;-0.74;83.32;101454.04;106283;1288;59742;-60
2023/12/07 09:35:20;;;;;;;118.80;44.30;;;;;;;-0.68;83.28;101455.30;106266;1288;59471;-59
2023/12/07 09:38:06;;;;;;;109.70;45.40;;;;;;;-0.66;83.22;101447.11;106259;1288;74494;-61
2023/12/07 09:40:53;;;;;;;118.60;45.30;;;;;;;-0.61;83.33;101446.64;106249;1288;69186;-60
2023/12/07 09:43:39;;;;;;;112.90;45.40;;;;;;;-0.55;83.32;101445.17;106235;1288;71816;-60
2023/12/07 09:46:25;;;;;;;;;;;;;;;-0.49;83.33;101449.97;106222;1291;59204;-60
2023/12/07 09:49:11;;;;;;;117.50;45.70;;;;;;;-0.49;83.23;101452.34;106224;1288;59462;-60
2023/12/07 09:51:59;;;;;;;117.30;46.50;;;;;;;-0.48;83.34;101448.52;106114;1288;74880;-61
2023/12/07 09:54:46;;;;;;;105.50;42.50;;;;;;;-0.46;83.31;101443.86;106277;1287;67262;-61
2023/12/07 09:57:33;;;;;;;121.80;46.80;;;;;;;-0.44;83.36;101438.70;106208;1288;71230;-60
2023/12/07 10:00:20;;;;;;;121.60;47.60;;;;;;;-0.41;83.32;101438.13;106119;1294;59081;-60
2023/12/07 10:03:09;;;;;;;;;;;;;;;-0.38;83.37;101441.80;106305;1288;60237;-60
2023/12/07 10:05:58;;;;;;;120.40;48.80;;;;;;;-0.41;83.17;101448.30;106246;1289;72578;-60
2023/12/07 10:08:46;;;;;;;105.10;41.90;;;;;;;-0.45;83.26;101450.83;106279;1288;67865;-59
2023/12/07 10:11:32;;;;;;;122.10;48.90;;;;;;;-0.47;83.26;101451.75;106232;1288;72278;-60
2023/12/07 10:14:18;;;;;;;118.40;47.20;;;;;;;-0.47;83.35;101448.88;106257;1289;59296;-60
2023/12/07 10:17:05;;;;;;;108.30;44.50;;;;;;;-0.49;83.32;101445.10;106220;1291;59028;-60
2023/12/07 10:20:08;;;;;;;119.20;46.60;;;;;;;-0.47;83.45;101444.48;106186;1288;73369;-60
2023/12/07 10:23:08;;;;;;;121.30;48.40;;;;;;;-0.43;83.50;101439.94;106263;1291;67248;-60
2023/12/07 10:25:54;;;;;;;115.80;48.30;;;;;;;-0.39;83.41;101435.35;106133;1288;72447;-60
2023/12/07 10:28:40;;;;;;;;;;;;;;;-0.41;83.36;101437.30;106322;1291;59225;-60
2023/12/07 10:31:26;;;;;;;115.70;46.60;;;;;;;-0.42;83.39;101434.55;106259;1291;59790;-60
2023/12/07 10:34:13;;;;;;;115.60;48.10;;;;;;;-0.42;83.39;101437.92;106172;1291;73130;-60
2023/12/07 10:36:59;;;;;;;124.60;48.70;;;;;;;-0.41;83.44;101436.08;106270;1288;68332;-60
2023/12/07 10:39:45;;;;;;;121.30;49.30;;;;;;;-0.40;83.47;101433.95;98548;1288;5003291;-60
2023/12/07 10:42:35;;;;;;;127.20;50.90;;;;;;;-0.40;83.44;101432.43;106253;1289;59138;-60
2023/12/07 10:45:24;;;;;;;123.80;50.40;;;;;;;-0.37;83.48;101433.91;106263;1288;59052;-58
2023/12/07 10:48:11;;;;;;;114.60;48.90;;;;;;;-0.37;83.44;101430.84;106331;1288;74340;-59
2023/12/07 10:51:00;;;;;;;119.80;49.40;;;;;;;-0.36;83.44;101430.74;98803;1288;10002283;-60
2023/12/07 10:53:50;;;;;;;124.20;51.00;;;;;;;-0.36;83.44;101430.22;106243;1288;59022;-60
2023/12/07 10:56:46;;;;;;;128.90;51.50;;;;;;;-0.35;83.39;101430.60;106257;1289;59017;-60
2023/12/07 10:59:35;;;;;;;126.70;51.80;;;;;;;-0.35;83.44;101428.91;106220;1288;73313;-60
2023/12/07 11:02:22;;;;;;;118.90;49.80;;;;;;;-0.31;83.51;101424.66;106251;1289;69410;-60
2023/12/07 11:05:08;;;;;;;116.60;48.30;;;;;;;-0.27;83.57;101425.15;106220;1288;71124;-59
2023/12/07 11:08:05;;;;;;;115.90;48.60;;;;;;;-0.20;83.55;101429.34;106129;1289;203623;-60
2023/12/07 11:11:12;;;;;;;126.10;50.90;;;;;;;-0.21;83.41;101427.27;105901;1292;59994;-59
2023/12/07 11:14:07;;;;;;;121.50;48.50;;;;;;;-0.20;83.55;101424.25;104882;1289;77348;-60
2023/12/07 11:16:53;;;;;;;118.30;49.70;;;;;;;-0.17;83.56;101419.48;104980;1288;71040;-59
2023/12/07 11:19:43;;;;;;;126.90;54.10;;;;;;;-0.16;83.56;101416.13;104977;1288;71684;-59
2023/12/07 11:22:31;;;;;;;123.90;50.60;;;;;;;-0.17;83.55;101420.66;104958;1289;61222;-59
2023/12/07 11:25:17;;;;;;;125.90;53.40;;;;;;;-0.18;83.55;101420.79;104950;1289;61130;-59
2023/12/07 11:28:05;;;;;;;134.60;53.60;;;;;;;-0.21;83.35;101419.65;104962;1291;74411;-59
2023/12/07 11:30:53;;;;;;;126.50;52.60;;;;;;;-0.24;83.45;101413.09;104966;1289;67201;-59
2023/12/07 11:33:41;;;;;;;127.40;52.20;;;;;;;-0.26;83.47;101409.10;104960;1288;73239;-60
2023/12/07 11:36:27;;;;;;;132.40;53.80;;;;;;;-0.23;83.54;101408.88;105019;1289;61142;-59
2023/12/07 11:39:14;;;;;;;;;;;;;;;-0.22;83.50;101411.79;105049;1289;61156;-59
2023/12/07 11:42:11;;;;;;;125.10;50.00;;;;;;;-0.20;83.54;101408.66;104882;1288;73287;-59
2023/12/07 11:44:57;;;;;;;121.10;50.10;;;;;;;-0.18;83.56;101405.36;106199;1288;67551;-63
2023/12/07 11:47:48;;;;;;;102.40;43.20;;;;;;;-0.16;83.52;101404.79;106175;1288;71761;-61
2023/12/07 11:50:34;;;;;;;120.90;50.20;;;;;;;-0.17;83.31;101409.28;106251;1288;58837;-61
2023/12/07 11:53:24;;;;;;;126.70;50.00;;;;;;;-0.25;83.26;101404.56;106286;1288;58990;-60
2023/12/07 11:56:12;;;;;;;123.20;51.00;;;;;;;-0.22;83.52;101407.59;106054;1291;74485;-60
2023/12/07 11:58:59;;;;;;;128.40;54.90;;;;;;;-0.14;83.64;101411.48;106173;1289;67468;-61
2023/12/07 12:01:49;;;;;;;124.30;51.50;;;;;;;-0.09;83.59;101411.16;106276;1288;71460;-61
2023/12/07 12:04:35;;;;;;;129.80;54.30;;;;;;;-0.02;83.66;101409.38;106266;1288;59004;-61
2023/12/07 12:07:21;;;;;;;137.90;54.80;;;;;;;0.03;83.66;101408.04;106242;1289;60548;-61
2023/12/07 12:10:07;;;;;;;120.70;52.50;;;;;;;0.06;83.54;101408.17;106255;1289;74401;-61
2023/12/07 12:12:53;;;;;;;129.40;54.00;;;;;;;0.07;83.50;101409.54;106210;1290;67523;-61
2023/12/07 12:15:40;;;;;;;123.10;50.30;;;;;;;0.07;83.62;101411.23;106243;1289;71491;-60
2023/12/07 12:18:27;;;;;;;121.20;49.10;;;;;;;0.10;83.59;101409.00;106285;1288;59162;-60
2023/12/07 12:21:13;;;;;;;126.30;52.70;;;;;;;0.12;83.56;101410.10;106100;1294;59049;-61
2023/12/07 12:23:59;;;;;;;113.60;48.90;;;;;;;0.14;83.59;101408.13;106160;1288;74266;-61
2023/12/07 12:26:47;;;;;;;121.60;51.60;;;;;;;0.17;83.62;101407.73;106280;1288;66255;-61
2023/12/07 12:29:33;;;;;;;128.50;53.20;;;;;;;0.17;83.59;101410.30;106208;1288;71386;-61
2023/12/07 12:32:22;;;;;;;131.90;55.00;;;;;;;0.19;83.60;101414.75;106283;1288;59279;-60